createdAt,value
2019-03-06T00:01:59.517Z,10.45
2019-03-06T00:04:32.863Z,10.44
2019-03-06T00:07:10.925Z,10.45
2019-03-06T00:09:43.290Z,10.45
2019-03-06T00:12:16.064Z,10.45
2019-03-06T00:14:53.599Z,10.45
2019-03-06T00:17:34.732Z,10.46
2019-03-06T00:20:14.178Z,10.46
2019-03-06T00:22:48.000Z,10.46
2019-03-06T00:25:22.205Z,10.48
2019-03-06T00:28:01.420Z,10.47
2019-03-06T00:36:29.071Z,10.46
2019-03-06T00:39:19.846Z,10.48
2019-03-06T00:42:01.212Z,10.49
2019-03-06T00:44:34.005Z,10.51
2019-03-06T00:47:07.222Z,10.53
2019-03-06T00:49:51.819Z,10.55
2019-03-06T00:52:32.994Z,10.53
2019-03-06T00:55:10.248Z,10.56
2019-03-06T00:57:44.929Z,10.53
2019-03-06T01:00:19.139Z,10.54
2019-03-06T01:02:53.374Z,10.57
2019-03-06T01:05:56.873Z,10.56
2019-03-06T01:08:28.828Z,10.57
2019-03-06T01:11:15.433Z,10.56
2019-03-06T01:13:49.473Z,10.54
2019-03-06T01:16:23.223Z,10.53
2019-03-06T01:18:55.422Z,10.51
2019-03-06T01:21:26.361Z,10.52
2019-03-06T01:23:58.936Z,10.53
2019-03-06T01:26:34.286Z,10.53
2019-03-06T01:29:07.058Z,10.53
2019-03-06T01:31:40.644Z,10.52
2019-03-06T01:34:25.015Z,10.51
2019-03-06T01:37:05.596Z,10.48
2019-03-06T01:40:43.691Z,10.48
2019-03-06T01:43:24.281Z,10.46
2019-03-06T01:45:57.326Z,10.44
2019-03-06T01:48:30.019Z,10.43
2019-03-06T01:51:06.002Z,10.44
2019-03-06T01:53:41.011Z,10.45
2019-03-06T01:56:11.927Z,10.47
2019-03-06T01:58:46.110Z,10.47
2019-03-06T02:01:16.876Z,10.49
2019-03-06T02:03:46.892Z,10.52
2019-03-06T02:06:18.581Z,10.53
2019-03-06T02:08:57.624Z,10.56
2019-03-06T02:11:30.332Z,10.56
2019-03-06T02:14:02.087Z,10.56
2019-03-06T02:16:39.340Z,10.54
2019-03-06T02:19:13.741Z,10.53
2019-03-06T02:21:51.213Z,10.55
2019-03-06T02:24:28.599Z,10.55
2019-03-06T02:29:50.639Z,10.58
2019-03-06T02:32:28.526Z,10.59
2019-03-06T02:35:02.394Z,10.60
2019-03-06T02:40:15.579Z,10.61
2019-03-06T02:42:51.187Z,10.62
2019-03-06T02:45:24.428Z,10.64
2019-03-06T02:48:06.104Z,10.63
2019-03-06T02:53:17.245Z,10.66
2019-03-06T02:55:53.449Z,10.67
2019-03-06T02:58:31.280Z,10.68
2019-03-06T03:01:05.408Z,10.67
2019-03-06T03:04:17.737Z,10.66
2019-03-06T03:06:55.407Z,10.63
2019-03-06T03:09:26.514Z,10.61
2019-03-06T03:12:00.686Z,10.61
2019-03-06T03:14:46.419Z,10.61
2019-03-06T03:17:18.842Z,10.61
2019-03-06T03:19:50.616Z,10.62
2019-03-06T03:25:10.779Z,10.63
2019-03-06T03:27:47.126Z,10.61
2019-03-06T03:30:20.540Z,10.61
2019-03-06T03:58:57.843Z,10.93
2019-03-06T04:01:30.517Z,10.98
2019-03-06T04:04:00.926Z,10.99
2019-03-06T04:06:30.661Z,11.02
2019-03-06T04:08:59.857Z,11.04
2019-03-06T04:11:30.989Z,11.06
2019-03-06T04:14:00.702Z,11.08
2019-03-06T04:16:30.742Z,11.10
2019-03-06T04:19:02.813Z,11.12
2019-03-06T04:21:33.419Z,11.14
2019-03-06T04:24:06.277Z,11.14
2019-03-06T04:26:37.279Z,11.17
2019-03-06T04:29:08.913Z,11.20
2019-03-06T04:31:42.206Z,11.24
2019-03-06T04:34:15.089Z,11.25
2019-03-06T04:36:49.518Z,11.28
2019-03-06T04:39:25.961Z,11.29
2019-03-06T04:42:02.672Z,11.28
2019-03-06T04:44:33.314Z,11.29
2019-03-06T04:47:04.371Z,11.30
2019-03-06T04:49:37.103Z,11.31
2019-03-06T04:52:13.619Z,11.32
2019-03-06T04:54:45.031Z,11.34
2019-03-06T04:57:16.575Z,11.34
2019-03-06T04:59:48.028Z,11.34
2019-03-06T05:02:22.387Z,11.34
2019-03-06T05:04:56.847Z,11.35
2019-03-06T05:07:28.556Z,11.35
2019-03-06T05:10:00.299Z,11.33
2019-03-06T05:12:36.145Z,11.33
2019-03-06T05:15:07.305Z,11.33
2019-03-06T05:24:35.295Z,11.26
2019-03-06T05:27:05.262Z,11.25
2019-03-06T05:29:41.295Z,11.26
2019-03-06T05:32:24.091Z,11.28
2019-03-06T05:34:54.892Z,11.31
2019-03-06T05:37:35.520Z,11.34
2019-03-06T05:40:05.356Z,11.34
2019-03-06T05:42:38.925Z,11.38
2019-03-06T05:45:10.190Z,11.41
2019-03-06T05:47:43.387Z,11.43
2019-03-06T05:50:20.237Z,11.44
2019-03-06T05:52:51.794Z,11.44
2019-03-06T05:55:27.003Z,11.43
2019-03-06T05:58:05.652Z,11.44
2019-03-06T06:00:37.262Z,11.45
2019-03-06T06:03:10.566Z,11.47
2019-03-06T06:05:45.527Z,11.48
2019-03-06T06:08:16.674Z,11.49
2019-03-06T06:10:56.014Z,11.50
2019-03-06T06:13:31.162Z,11.49
2019-03-06T06:16:01.670Z,11.51
2019-03-06T06:18:32.267Z,11.52
2019-03-06T06:21:19.585Z,11.51
2019-03-06T06:23:58.518Z,11.49
2019-03-06T06:26:30.635Z,11.47
2019-03-06T06:29:02.264Z,11.46
2019-03-06T06:31:39.317Z,11.45
2019-03-06T06:34:09.544Z,11.45
2019-03-06T06:36:38.838Z,11.44
2019-03-06T06:39:09.880Z,11.43
2019-03-06T06:41:40.322Z,11.43
2019-03-06T06:44:13.127Z,11.45
2019-03-06T06:46:44.557Z,11.45
2019-03-06T06:49:14.895Z,11.44
2019-03-06T06:58:17.015Z,11.42
2019-03-06T07:01:08.982Z,11.43
2019-03-06T07:04:04.755Z,11.42
2019-03-06T07:07:40.936Z,11.40
2019-03-06T07:10:16.278Z,11.41
2019-03-06T07:12:55.100Z,11.41
2019-03-06T07:15:34.233Z,11.40
2019-03-06T07:18:10.466Z,11.40
2019-03-06T07:20:48.915Z,11.39
2019-03-06T07:23:31.597Z,11.41
2019-03-06T07:26:10.053Z,11.41
2019-03-06T07:28:46.636Z,11.41
2019-03-06T07:31:26.957Z,11.41
2019-03-06T07:34:01.828Z,11.37
2019-03-06T07:36:37.430Z,11.35
2019-03-06T07:39:14.325Z,11.33
2019-03-06T07:42:49.643Z,11.32
2019-03-06T07:45:33.732Z,11.30
2019-03-06T07:48:12.251Z,11.29
2019-03-06T07:50:56.779Z,11.31
2019-03-06T07:53:46.741Z,11.33
2019-03-06T07:56:22.429Z,11.33
2019-03-06T07:58:56.339Z,11.36
2019-03-06T08:01:28.667Z,11.36
2019-03-06T08:04:06.732Z,11.38
2019-03-06T08:06:38.379Z,11.39
2019-03-06T08:09:14.253Z,11.38
2019-03-06T08:11:48.239Z,11.40
2019-03-06T08:14:24.398Z,11.41
2019-03-06T08:17:01.151Z,11.40
2019-03-06T08:19:39.257Z,11.42
2019-03-06T08:22:21.170Z,11.44
2019-03-06T08:24:59.516Z,11.46
2019-03-06T08:27:33.352Z,11.47
2019-03-06T08:30:08.972Z,11.50
2019-03-06T08:32:52.339Z,11.53
2019-03-06T08:35:24.354Z,11.53
2019-03-06T08:37:57.425Z,11.55
2019-03-06T08:40:29.805Z,11.55
2019-03-06T08:42:59.905Z,11.56
2019-03-06T08:45:41.817Z,11.57
2019-03-06T08:48:18.574Z,11.57
2019-03-06T08:51:03.317Z,11.58
2019-03-06T08:53:41.326Z,11.61
2019-03-06T08:56:20.361Z,11.64
2019-03-06T08:59:05.137Z,11.67
2019-03-06T09:01:40.064Z,11.67
2019-03-06T09:08:33.723Z,11.68
2019-03-06T09:11:08.576Z,11.68
2019-03-06T09:14:15.783Z,11.68
2019-03-06T09:17:17.698Z,11.69
2019-03-06T09:34:25.990Z,11.55
2019-03-06T09:37:15.211Z,11.53
2019-03-06T09:39:50.974Z,11.51
2019-03-06T09:42:32.396Z,11.47
2019-03-06T09:45:25.159Z,11.44
2019-03-06T09:48:00.798Z,11.41
2019-03-06T09:50:53.233Z,11.40
2019-03-06T09:53:36.664Z,11.39
2019-03-06T09:56:14.840Z,11.39
2019-03-06T09:59:08.610Z,11.41
2019-03-06T10:04:27.847Z,11.49
2019-03-06T10:07:08.762Z,11.52
2019-03-06T10:10:57.008Z,11.54
2019-03-06T10:13:31.770Z,11.59
2019-03-06T10:16:08.356Z,11.63
2019-03-06T10:18:44.328Z,11.66
2019-03-06T10:21:14.926Z,11.70
2019-03-06T10:23:46.170Z,11.73
2019-03-06T10:26:23.165Z,11.74
2019-03-06T10:29:02.157Z,11.78
2019-03-06T10:31:38.588Z,11.86
2019-03-06T10:34:08.912Z,11.98
2019-03-06T10:36:43.428Z,12.14
2019-03-06T10:39:19.388Z,12.30
2019-03-06T10:41:52.037Z,12.44
2019-03-06T10:44:29.481Z,12.54
2019-03-06T10:46:56.996Z,12.66
2019-03-06T10:49:31.278Z,12.71
2019-03-06T10:52:05.538Z,12.73
2019-03-06T10:54:44.672Z,12.73
2019-03-06T10:57:11.798Z,12.73
2019-03-06T10:59:40.761Z,12.73
2019-03-06T11:02:11.871Z,12.73
2019-03-06T11:04:53.209Z,12.73
2019-03-06T11:07:23.217Z,12.73
2019-03-06T11:09:54.454Z,12.74
2019-03-06T11:12:26.525Z,12.76
2019-03-06T11:15:00.772Z,12.82
2019-03-06T11:17:37.795Z,12.86
2019-03-06T11:20:10.437Z,12.93
2019-03-06T11:22:42.207Z,12.98
2019-03-06T11:25:17.697Z,12.98
2019-03-06T11:27:50.686Z,13.03
2019-03-06T11:30:28.058Z,13.11
2019-03-06T11:33:00.813Z,13.14
2019-03-06T11:41:01.096Z,13.17
2019-03-06T11:43:38.714Z,13.18
2019-03-06T11:46:09.153Z,13.15
2019-03-06T11:48:41.552Z,13.13
2019-03-06T11:51:13.705Z,13.10
2019-03-06T11:53:43.155Z,13.08
2019-03-06T11:56:13.284Z,13.09
2019-03-06T11:58:44.496Z,13.11
2019-03-06T12:01:18.610Z,13.18
2019-03-06T12:03:50.397Z,13.24
2019-03-06T12:06:24.792Z,13.24
2019-03-06T12:08:55.011Z,13.23
2019-03-06T12:11:29.821Z,13.20
2019-03-06T12:14:02.502Z,13.19
2019-03-06T12:16:41.669Z,13.20
2019-03-06T12:19:08.209Z,13.22
2019-03-06T12:21:41.006Z,13.27
2019-03-06T12:24:13.146Z,13.38
2019-03-06T12:26:43.322Z,13.52
2019-03-06T12:29:17.792Z,13.64
2019-03-06T12:31:47.187Z,13.72
2019-03-06T12:34:16.787Z,13.78
2019-03-06T12:36:47.324Z,13.81
2019-03-06T12:39:22.687Z,13.80
2019-03-06T12:41:51.870Z,13.75
2019-03-06T12:44:27.176Z,13.65
2019-03-06T12:46:59.498Z,13.57
2019-03-06T12:49:32.542Z,13.52
2019-03-06T12:52:05.336Z,13.52
2019-03-06T12:54:41.126Z,13.49
2019-03-06T12:57:12.206Z,13.43
2019-03-06T12:59:45.109Z,13.34
2019-03-06T13:02:24.615Z,13.25
2019-03-06T13:05:08.659Z,13.16
2019-03-06T13:07:42.177Z,13.09
2019-03-06T13:10:15.657Z,13.04
2019-03-06T13:15:31.617Z,13.00
2019-03-06T13:18:12.205Z,12.98
2019-03-06T13:20:43.009Z,12.95
2019-03-06T13:25:48.789Z,12.92
2019-03-06T13:28:22.190Z,12.89
2019-03-06T13:30:57.390Z,12.89
2019-03-06T13:33:42.149Z,12.90
2019-03-06T13:36:13.946Z,12.87
2019-03-06T13:38:54.719Z,12.90
2019-03-06T13:41:21.560Z,12.95
2019-03-06T13:43:56.297Z,13.00
2019-03-06T13:46:26.640Z,13.03
2019-03-06T13:48:56.724Z,13.05
2019-03-06T13:51:29.154Z,13.06
2019-03-06T13:54:06.616Z,13.09
2019-03-06T13:56:39.685Z,13.14
2019-03-06T13:59:13.343Z,13.15
2019-03-06T14:01:47.916Z,13.15
2019-03-06T14:04:19.185Z,13.13
2019-03-06T14:06:53.272Z,13.12
2019-03-06T14:09:29.523Z,13.12
2019-03-06T14:12:05.951Z,13.13
2019-03-06T14:14:39.638Z,13.11
2019-03-06T14:17:12.148Z,13.12
2019-03-06T14:19:42.576Z,13.20
2019-03-06T14:22:13.656Z,13.24
2019-03-06T14:24:53.156Z,13.25
2019-03-06T14:45:05.613Z,13.22
2019-03-06T14:47:38.494Z,13.23
2019-03-06T14:50:11.770Z,13.24
2019-03-06T14:52:48.075Z,13.25
2019-03-06T14:55:19.887Z,13.24
2019-03-06T14:57:50.788Z,13.19
2019-03-06T15:00:20.550Z,13.13
2019-03-06T15:02:52.919Z,13.01
2019-03-06T15:05:23.238Z,12.88
2019-03-06T15:07:54.983Z,12.78
2019-03-06T15:10:25.369Z,12.73
2019-03-06T15:13:08.563Z,12.68
2019-03-06T15:21:11.464Z,12.43
2019-03-06T15:23:44.163Z,12.44
2019-03-06T15:32:13.607Z,12.43
2019-03-06T15:37:59.043Z,12.41
